createdAt,value
2018-07-04T00:00:37.232Z,0.77
2018-07-04T00:03:16.900Z,1.00
2018-07-04T00:05:56.692Z,0.70
2018-07-04T00:08:36.462Z,1.00
2018-07-04T00:11:16.152Z,0.80
2018-07-04T00:13:55.726Z,0.60
2018-07-04T00:16:35.471Z,0.70
2018-07-04T00:19:15.068Z,1.07
2018-07-04T00:21:54.632Z,1.20
2018-07-04T00:24:34.222Z,0.90
2018-07-04T00:27:13.921Z,0.63
2018-07-04T00:29:53.597Z,0.80
2018-07-04T00:32:33.225Z,1.00
2018-07-04T00:35:12.843Z,0.80
2018-07-04T00:37:52.537Z,1.00
2018-07-04T00:40:32.092Z,1.10
2018-07-04T00:43:11.662Z,0.87
2018-07-04T00:45:51.313Z,0.80
2018-07-04T00:48:24.882Z,0.80
2018-07-04T00:51:04.701Z,0.73
2018-07-04T00:53:44.383Z,0.83
2018-07-04T00:56:24.092Z,0.77
2018-07-04T00:59:03.759Z,0.67
2018-07-04T01:01:43.286Z,1.00
2018-07-04T01:04:22.887Z,1.00
2018-07-04T01:07:02.571Z,0.87
2018-07-04T01:09:42.232Z,0.90
2018-07-04T01:12:21.993Z,0.80
2018-07-04T01:15:01.552Z,0.73
2018-07-04T01:17:41.349Z,0.83
2018-07-04T01:20:21.047Z,0.80
2018-07-04T01:22:54.703Z,0.70
2018-07-04T01:25:34.259Z,0.83
2018-07-04T01:28:14.001Z,0.80
2018-07-04T01:30:53.409Z,0.80
2018-07-04T01:33:33.178Z,0.60
2018-07-04T01:36:12.721Z,1.00
2018-07-04T01:38:52.221Z,1.00
2018-07-04T01:41:31.923Z,1.17
2018-07-04T01:44:11.788Z,0.90
2018-07-04T01:46:45.518Z,1.20
2018-07-04T01:49:25.344Z,0.83
2018-07-04T01:51:59.081Z,0.70
2018-07-04T01:54:38.667Z,0.80
2018-07-04T01:57:18.294Z,1.10
2018-07-04T01:59:57.751Z,1.20
2018-07-04T02:02:37.467Z,0.80
2018-07-04T02:05:17.091Z,0.90
2018-07-04T02:07:56.732Z,0.70
2018-07-04T02:10:36.395Z,0.83
2018-07-04T02:13:15.849Z,0.60
2018-07-04T02:15:55.556Z,0.90
2018-07-04T02:18:35.200Z,0.50
2018-07-04T02:21:14.846Z,0.80
2018-07-04T02:23:54.464Z,0.83
2018-07-04T02:26:34.148Z,1.13
2018-07-04T02:29:13.746Z,0.63
2018-07-04T02:31:47.469Z,0.97
2018-07-04T02:34:27.303Z,0.90
2018-07-04T02:37:08.316Z,0.80
2018-07-04T02:39:48.026Z,0.87
2018-07-04T02:42:27.496Z,0.80
2018-07-04T02:45:07.272Z,0.80
2018-07-04T02:47:46.767Z,0.80
2018-07-04T02:50:26.337Z,0.80
2018-07-04T02:53:06.056Z,0.73
2018-07-04T02:55:45.604Z,0.80
2018-07-04T02:58:25.253Z,1.00
2018-07-04T03:01:04.968Z,0.97
2018-07-04T03:03:44.662Z,0.90
2018-07-04T03:06:24.315Z,0.90
2018-07-04T03:09:04.912Z,0.80
2018-07-04T03:11:44.492Z,0.80
2018-07-04T03:14:24.084Z,1.10
2018-07-04T03:16:57.729Z,0.77
2018-07-04T03:19:37.190Z,1.00
2018-07-04T03:22:16.747Z,0.90
2018-07-04T03:24:56.212Z,0.80
2018-07-04T03:27:35.855Z,0.90
2018-07-04T03:30:15.414Z,0.93
2018-07-04T03:32:54.955Z,1.00
2018-07-04T03:35:34.406Z,0.90
2018-07-04T03:38:14.157Z,0.90
2018-07-04T03:40:53.879Z,0.80
2018-07-04T03:43:33.911Z,0.80
2018-07-04T03:46:13.483Z,1.00
2018-07-04T03:48:53.251Z,1.20
2018-07-04T03:51:32.822Z,0.90
2018-07-04T03:54:12.368Z,1.00
2018-07-04T03:56:51.802Z,1.03
2018-07-04T03:59:31.911Z,1.10
2018-07-04T04:02:11.395Z,1.00
2018-07-04T04:04:51.137Z,1.00
2018-07-04T04:07:30.532Z,1.00
2018-07-04T04:10:10.183Z,0.93
2018-07-04T04:12:49.777Z,1.00
2018-07-04T04:15:29.496Z,0.87
2018-07-04T04:18:09.055Z,1.00
2018-07-04T04:20:42.573Z,1.13
2018-07-04T04:23:22.413Z,0.70
2018-07-04T04:25:56.150Z,0.90
2018-07-04T04:28:35.721Z,1.30
2018-07-04T04:31:15.286Z,1.00
2018-07-04T04:33:54.911Z,0.80
2018-07-04T04:36:34.400Z,1.00
2018-07-04T04:39:14.188Z,0.90
2018-07-04T04:41:53.927Z,1.00
2018-07-04T04:44:33.420Z,1.13
2018-07-04T04:47:12.956Z,1.23
2018-07-04T04:49:52.664Z,0.87
2018-07-04T04:52:32.349Z,0.60
2018-07-04T04:55:11.864Z,0.63
2018-07-04T04:57:51.463Z,0.77
2018-07-04T05:00:31.101Z,0.97
2018-07-04T05:03:10.677Z,1.13
2018-07-04T05:05:50.267Z,1.10
2018-07-04T05:08:30.000Z,1.00
2018-07-04T05:11:09.790Z,1.00
2018-07-04T05:13:49.356Z,1.13
2018-07-04T05:16:29.139Z,1.00
2018-07-04T05:19:08.890Z,1.10
2018-07-04T05:21:48.559Z,1.37
2018-07-04T05:24:28.088Z,1.30
2018-07-04T05:27:07.641Z,0.83
2018-07-04T05:29:47.542Z,0.80
2018-07-04T05:32:21.235Z,0.90
2018-07-04T05:34:54.977Z,0.80
2018-07-04T05:37:34.540Z,0.83
2018-07-04T05:40:14.969Z,0.90
2018-07-04T05:42:54.624Z,0.90
2018-07-04T05:45:34.623Z,1.17
2018-07-04T05:48:14.049Z,0.97
2018-07-04T05:50:53.662Z,1.30
2018-07-04T05:53:33.356Z,0.97
2018-07-04T05:56:13.087Z,0.90
2018-07-04T05:58:52.979Z,0.93
2018-07-04T06:01:32.704Z,1.00
2018-07-04T06:04:06.192Z,0.80
2018-07-04T06:06:45.773Z,1.23
2018-07-04T06:09:25.617Z,1.10
2018-07-04T06:12:05.338Z,0.93
2018-07-04T06:14:38.949Z,0.90
2018-07-04T06:17:18.484Z,1.10
2018-07-04T06:19:58.052Z,0.80
2018-07-04T06:22:37.653Z,0.80
2018-07-04T06:25:17.122Z,0.90
2018-07-04T06:27:56.785Z,1.03
2018-07-04T06:30:36.448Z,1.00
2018-07-04T06:33:16.162Z,1.10
2018-07-04T06:35:55.974Z,0.90
2018-07-04T06:38:23.447Z,1.07
2018-07-04T06:40:50.688Z,1.00
2018-07-04T06:43:17.928Z,1.00
2018-07-04T06:45:45.194Z,1.13
2018-07-04T06:48:12.450Z,0.80
2018-07-04T06:50:40.085Z,0.87
2018-07-04T06:53:07.319Z,0.87
2018-07-04T06:55:34.587Z,0.87
2018-07-04T06:58:01.801Z,0.80
2018-07-04T07:00:29.086Z,0.77
2018-07-04T07:03:08.875Z,0.90
2018-07-04T07:05:48.316Z,0.80
2018-07-04T07:08:28.453Z,0.90
2018-07-04T07:11:08.115Z,1.10
2018-07-04T07:13:47.852Z,1.00
2018-07-04T07:16:21.701Z,0.80
2018-07-04T07:19:01.212Z,0.93
2018-07-04T07:21:40.837Z,0.90
2018-07-04T07:24:20.481Z,0.80
2018-07-04T07:26:54.212Z,0.90
2018-07-04T07:29:34.439Z,0.80
2018-07-04T07:32:14.124Z,0.90
2018-07-04T07:34:53.772Z,0.60
2018-07-04T07:37:33.475Z,1.13
2018-07-04T07:40:13.059Z,1.00
2018-07-04T07:42:52.742Z,0.90
2018-07-04T07:45:32.462Z,1.00
2018-07-04T07:48:12.143Z,0.80
2018-07-04T07:50:51.900Z,0.83
2018-07-04T07:53:31.670Z,0.93
2018-07-04T07:56:11.379Z,0.80
2018-07-04T07:58:51.065Z,0.90
2018-07-04T08:01:30.715Z,0.80
2018-07-04T08:04:10.393Z,0.90
2018-07-04T08:06:49.972Z,0.90
2018-07-04T08:09:29.613Z,1.33
2018-07-04T08:12:09.291Z,0.90
2018-07-04T08:14:49.077Z,1.00
2018-07-04T08:17:22.570Z,0.70
2018-07-04T08:20:02.080Z,0.80
2018-07-04T08:22:41.641Z,0.93
2018-07-04T08:25:21.245Z,1.10
2018-07-04T08:28:00.831Z,0.80
2018-07-04T08:30:40.368Z,0.73
2018-07-04T08:33:20.073Z,0.80
2018-07-04T08:35:59.675Z,1.10
2018-07-04T08:38:39.429Z,0.73
2018-07-04T08:41:19.011Z,0.90
2018-07-04T08:43:58.568Z,0.70
2018-07-04T08:46:38.198Z,0.70
2018-07-04T08:49:17.716Z,0.70
2018-07-04T08:51:57.257Z,0.90
2018-07-04T08:54:36.771Z,0.70
2018-07-04T08:57:16.451Z,0.80
2018-07-04T08:59:56.216Z,0.90
2018-07-04T09:02:35.861Z,0.70
2018-07-04T09:05:15.444Z,0.87
2018-07-04T09:07:55.145Z,0.80
2018-07-04T09:10:35.001Z,0.70
2018-07-04T09:13:14.688Z,0.90
2018-07-04T09:15:54.387Z,0.90
2018-07-04T09:18:34.033Z,0.80
2018-07-04T09:21:13.539Z,0.90
2018-07-04T09:23:53.348Z,1.00
2018-07-04T09:26:26.835Z,1.00
2018-07-04T09:29:06.521Z,0.90
2018-07-04T09:31:46.063Z,0.90
2018-07-04T09:34:25.708Z,0.90
2018-07-04T09:37:05.494Z,1.00
2018-07-04T09:39:45.102Z,0.73
2018-07-04T09:42:24.673Z,1.00
2018-07-04T09:45:04.221Z,1.00
2018-07-04T09:47:43.880Z,1.10
2018-07-04T09:50:23.482Z,1.00
2018-07-04T09:53:03.142Z,0.97
2018-07-04T09:55:42.692Z,1.23
2018-07-04T09:58:22.369Z,1.23
2018-07-04T10:01:07.501Z,1.13
2018-07-04T10:03:47.008Z,1.20
2018-07-04T10:06:26.555Z,1.07
2018-07-04T10:09:06.167Z,1.20
2018-07-04T10:11:45.773Z,1.10
2018-07-04T10:14:25.413Z,1.27
2018-07-04T10:17:04.991Z,0.90
2018-07-04T10:19:44.508Z,1.73
2018-07-04T10:22:25.058Z,1.00
2018-07-04T10:25:04.684Z,1.13
2018-07-04T10:27:44.418Z,1.30
2018-07-04T10:30:24.134Z,1.50
2018-07-04T10:33:03.619Z,1.10
2018-07-04T10:35:43.237Z,1.30
2018-07-04T10:38:22.965Z,1.20
2018-07-04T10:41:02.504Z,1.03
2018-07-04T10:43:42.128Z,1.00
2018-07-04T10:46:21.673Z,1.10
2018-07-04T10:49:01.312Z,0.97
2018-07-04T10:51:34.734Z,0.90
2018-07-04T10:54:14.285Z,1.00
2018-07-04T10:56:53.831Z,0.70
2018-07-04T10:59:34.264Z,0.70
2018-07-04T11:02:14.095Z,0.67
2018-07-04T11:04:53.699Z,0.93
2018-07-04T11:07:33.424Z,0.70
2018-07-04T11:10:13.063Z,0.70
2018-07-04T11:12:52.710Z,0.80
2018-07-04T11:15:32.392Z,0.70
2018-07-04T11:18:12.026Z,1.00
2018-07-04T11:20:51.636Z,0.90
2018-07-04T11:23:31.499Z,1.03
2018-07-04T11:26:11.191Z,0.90
2018-07-04T11:28:50.609Z,1.27
2018-07-04T11:31:30.371Z,1.10
2018-07-04T11:34:10.072Z,1.10
2018-07-04T11:36:49.674Z,1.30
2018-07-04T11:39:29.313Z,1.03
2018-07-04T11:42:09.144Z,1.00
2018-07-04T11:44:42.664Z,1.00
2018-07-04T11:47:09.871Z,1.03
2018-07-04T11:49:37.145Z,1.00
2018-07-04T11:52:04.384Z,1.10
2018-07-04T11:54:31.603Z,1.10
2018-07-04T11:56:58.880Z,1.40
2018-07-04T11:59:26.760Z,1.17
2018-07-04T12:01:54.093Z,1.10
2018-07-04T12:04:33.773Z,1.10
2018-07-04T12:07:06.005Z,0.90
2018-07-04T12:09:33.543Z,1.20
2018-07-04T12:12:01.114Z,1.20
2018-07-04T12:14:28.652Z,1.20
2018-07-04T12:16:56.206Z,1.10
2018-07-04T12:19:23.659Z,1.10
2018-07-04T12:21:50.942Z,1.10
2018-07-04T12:24:18.193Z,1.10
2018-07-04T12:26:45.527Z,1.20
2018-07-04T12:29:12.758Z,1.40
2018-07-04T12:31:40.565Z,1.23
2018-07-04T12:34:07.836Z,1.40
2018-07-04T12:36:35.451Z,1.00
2018-07-04T12:39:02.754Z,1.20
2018-07-04T12:41:29.996Z,1.17
2018-07-04T12:43:57.253Z,1.27
2018-07-04T12:46:24.488Z,1.20
2018-07-04T12:48:55.926Z,1.30
2018-07-04T12:51:23.145Z,1.20
2018-07-04T12:53:50.439Z,1.10
2018-07-04T12:56:23.876Z,1.20
2018-07-04T12:59:03.444Z,1.40
2018-07-04T13:01:43.090Z,1.50
2018-07-04T13:04:22.624Z,2.03
2018-07-04T13:07:02.196Z,1.40
2018-07-04T13:09:41.840Z,1.40
2018-07-04T13:12:21.496Z,1.33
2018-07-04T13:15:01.059Z,1.70
2018-07-04T13:17:40.739Z,1.50
2018-07-04T13:20:20.311Z,1.37
2018-07-04T13:23:00.028Z,1.10
2018-07-04T13:25:39.595Z,1.30
2018-07-04T13:28:19.231Z,1.43
2018-07-04T13:30:58.893Z,1.70
2018-07-04T13:33:38.510Z,1.50
2018-07-04T13:36:18.182Z,1.33
2018-07-04T13:38:57.955Z,1.43
2018-07-04T13:41:37.437Z,1.50
2018-07-04T13:44:17.056Z,1.40
2018-07-04T13:46:56.675Z,1.50
2018-07-04T13:49:36.437Z,1.47
2018-07-04T13:52:10.030Z,1.60
2018-07-04T13:54:49.633Z,1.60
2018-07-04T13:57:29.447Z,1.80
2018-07-04T14:00:09.144Z,1.80
2018-07-04T14:02:48.777Z,1.60
2018-07-04T14:05:28.311Z,1.57
2018-07-04T14:08:07.992Z,1.50
2018-07-04T14:10:47.586Z,1.97
2018-07-04T14:13:27.217Z,1.53
2018-07-04T14:16:07.035Z,1.43
2018-07-04T14:18:46.682Z,1.70
2018-07-04T14:21:27.703Z,1.50
2018-07-04T14:24:07.283Z,1.80
2018-07-04T14:26:40.923Z,1.87
2018-07-04T14:29:20.991Z,1.87
2018-07-04T14:31:54.671Z,2.00
2018-07-04T14:34:34.429Z,1.70
2018-07-04T14:37:14.031Z,1.57
2018-07-04T14:39:53.844Z,2.13
2018-07-04T14:42:33.396Z,1.90
2018-07-04T14:45:13.075Z,1.90
2018-07-04T14:47:52.647Z,1.70
2018-07-04T14:50:32.351Z,2.00
2018-07-04T14:53:05.976Z,1.63
2018-07-04T14:55:45.771Z,1.83
2018-07-04T14:58:25.432Z,1.70
2018-07-04T15:01:05.070Z,2.10
2018-07-04T15:03:44.499Z,2.03
2018-07-04T15:06:24.273Z,2.03
2018-07-04T15:08:57.883Z,2.07
2018-07-04T15:11:37.604Z,1.90
2018-07-04T15:14:11.293Z,1.60
2018-07-04T15:16:50.796Z,1.67
2018-07-04T15:19:30.617Z,2.00
2018-07-04T15:22:04.309Z,1.90
2018-07-04T15:24:38.410Z,1.87
2018-07-04T15:27:18.104Z,1.60
2018-07-04T15:29:57.897Z,1.50
2018-07-04T15:32:37.524Z,1.50
2018-07-04T15:35:17.028Z,1.87
2018-07-04T15:37:56.702Z,1.93
2018-07-04T15:40:36.659Z,1.97
2018-07-04T15:43:16.441Z,2.27
2018-07-04T15:45:50.199Z,1.80
2018-07-04T15:48:29.952Z,2.10
2018-07-04T15:51:09.704Z,1.73
2018-07-04T15:53:49.491Z,1.83
2018-07-04T15:56:22.990Z,1.53
2018-07-04T15:58:56.595Z,1.47
2018-07-04T16:01:30.136Z,1.97
2018-07-04T16:04:09.756Z,1.90
2018-07-04T16:06:49.336Z,1.60
2018-07-04T16:09:28.861Z,2.00
2018-07-04T16:12:08.574Z,1.63
2018-07-04T16:14:48.178Z,2.00
2018-07-04T16:17:27.920Z,1.77
2018-07-04T16:20:07.716Z,2.00
2018-07-04T16:22:47.445Z,1.57
2018-07-04T16:25:27.117Z,2.03
2018-07-04T16:28:06.876Z,1.70
2018-07-04T16:30:46.501Z,2.23
2018-07-04T16:33:26.026Z,1.63
2018-07-04T16:35:59.516Z,2.00
2018-07-04T16:38:33.027Z,1.77
2018-07-04T16:41:12.774Z,1.67
2018-07-04T16:43:52.432Z,1.80
2018-07-04T16:46:31.915Z,2.07
2018-07-04T16:49:11.491Z,2.00
2018-07-04T16:51:51.228Z,2.20
2018-07-04T16:54:31.027Z,1.80
2018-07-04T16:57:10.641Z,2.20
2018-07-04T16:59:50.411Z,2.50
2018-07-04T17:02:29.981Z,1.93
2018-07-04T17:05:09.813Z,2.23
2018-07-04T17:07:49.496Z,2.20
2018-07-04T17:10:28.951Z,2.10
2018-07-04T17:13:08.753Z,1.87
2018-07-04T17:15:48.574Z,2.17
2018-07-04T17:18:22.202Z,1.80
2018-07-04T17:21:01.621Z,1.67
2018-07-04T17:23:41.153Z,1.97
2018-07-04T17:26:20.687Z,1.77
2018-07-04T17:28:54.284Z,1.90
2018-07-04T17:31:33.915Z,2.10
2018-07-04T17:34:13.668Z,2.23
2018-07-04T17:36:53.476Z,1.83
2018-07-04T17:39:33.125Z,1.77
2018-07-04T17:42:12.676Z,2.00
2018-07-04T17:44:52.313Z,2.10
2018-07-04T17:47:31.848Z,1.67
2018-07-04T17:50:11.472Z,2.20
2018-07-04T17:52:51.126Z,1.80
2018-07-04T17:55:30.768Z,2.07
2018-07-04T17:58:10.370Z,1.90
2018-07-04T18:00:49.974Z,2.10
2018-07-04T18:03:29.674Z,1.67
2018-07-04T18:06:09.286Z,1.73
2018-07-04T18:08:48.712Z,1.93
2018-07-04T18:11:28.383Z,1.77
2018-07-04T18:14:02.032Z,1.77
2018-07-04T18:16:41.695Z,1.70
2018-07-04T18:19:21.276Z,1.60
2018-07-04T18:22:00.862Z,1.70
2018-07-04T18:24:40.317Z,1.43
2018-07-04T18:27:19.761Z,1.80
2018-07-04T18:29:59.339Z,1.50
2018-07-04T18:32:38.960Z,1.90
2018-07-04T18:35:18.568Z,1.70
2018-07-04T18:37:58.202Z,1.80
2018-07-04T18:40:37.805Z,2.23
2018-07-04T18:43:17.473Z,2.03
2018-07-04T18:45:57.088Z,1.73
2018-07-04T18:48:30.831Z,2.30
2018-07-04T18:51:10.369Z,2.00
2018-07-04T18:53:50.131Z,1.80
2018-07-04T18:56:29.952Z,1.60
2018-07-04T18:59:09.580Z,1.70
2018-07-04T19:01:49.251Z,1.77
2018-07-04T19:04:28.977Z,1.60
2018-07-04T19:07:08.652Z,1.90
2018-07-04T19:09:48.440Z,1.73
2018-07-04T19:12:22.053Z,1.87
2018-07-04T19:14:55.601Z,1.70
2018-07-04T19:17:35.223Z,1.63
2018-07-04T19:20:14.864Z,1.90
2018-07-04T19:22:54.429Z,1.97
2018-07-04T19:25:34.191Z,1.80
2018-07-04T19:28:13.968Z,1.70
2018-07-04T19:30:53.549Z,2.17
2018-07-04T19:33:33.300Z,1.60
2018-07-04T19:36:12.907Z,1.73
2018-07-04T19:38:52.536Z,2.33
2018-07-04T19:41:26.064Z,1.53
2018-07-04T19:44:05.670Z,2.33
2018-07-04T19:46:39.335Z,2.00
2018-07-04T19:49:18.839Z,2.40
2018-07-04T19:51:58.411Z,1.90
2018-07-04T19:54:33.001Z,2.20
2018-07-04T19:57:12.885Z,2.03
2018-07-04T19:59:52.523Z,1.90
2018-07-04T20:02:32.050Z,2.00
2018-07-04T20:05:11.838Z,1.97
2018-07-04T20:07:51.418Z,2.33
2018-07-04T20:10:31.063Z,2.30
2018-07-04T20:13:10.661Z,2.00
2018-07-04T20:15:50.156Z,2.50
2018-07-04T20:18:29.757Z,2.17
2018-07-04T20:21:09.476Z,2.60
2018-07-04T20:23:49.172Z,2.40
2018-07-04T20:26:22.891Z,1.87
2018-07-04T20:29:02.636Z,2.00
2018-07-04T20:31:42.341Z,1.80
2018-07-04T20:34:21.957Z,2.53
2018-07-04T20:37:01.668Z,2.10
2018-07-04T20:39:41.325Z,2.10
2018-07-04T20:42:21.174Z,2.00
2018-07-04T20:45:00.895Z,2.00
2018-07-04T20:47:40.591Z,1.77
2018-07-04T20:50:20.202Z,2.10
2018-07-04T20:52:59.812Z,1.93
2018-07-04T20:55:39.565Z,2.13
2018-07-04T20:58:19.210Z,1.90
2018-07-04T21:00:58.925Z,1.83
2018-07-04T21:03:38.499Z,2.20
2018-07-04T21:06:18.449Z,2.00
2018-07-04T21:08:58.261Z,2.20
2018-07-04T21:11:37.837Z,2.30
2018-07-04T21:14:17.429Z,2.27
2018-07-04T21:16:57.168Z,2.27
2018-07-04T21:19:36.683Z,2.40
2018-07-04T21:22:16.281Z,2.40
2018-07-04T21:24:49.829Z,1.90
2018-07-04T21:27:29.412Z,1.90
2018-07-04T21:30:09.025Z,2.40
2018-07-04T21:32:48.585Z,1.87
2018-07-04T21:35:28.320Z,2.27
2018-07-04T21:38:07.988Z,2.07
2018-07-04T21:40:47.468Z,2.20
2018-07-04T21:43:27.110Z,2.07
2018-07-04T21:46:06.811Z,2.10
2018-07-04T21:48:46.235Z,1.63
2018-07-04T21:51:25.858Z,2.47
2018-07-04T21:54:05.452Z,2.50
2018-07-04T21:56:45.138Z,2.20
2018-07-04T21:59:25.077Z,4.50
2018-07-04T22:02:04.510Z,3.60
2018-07-04T22:04:44.069Z,2.07
2018-07-04T22:07:23.572Z,2.07
2018-07-04T22:10:03.112Z,2.47
2018-07-04T22:12:42.588Z,2.20
2018-07-04T22:15:22.316Z,2.20
2018-07-04T22:18:02.052Z,2.00
2018-07-04T22:20:41.601Z,2.07
2018-07-04T22:23:21.228Z,1.93
2018-07-04T22:26:01.016Z,2.20
2018-07-04T22:28:40.816Z,2.50
2018-07-04T22:31:20.255Z,1.73
2018-07-04T22:33:59.814Z,1.90
2018-07-04T22:36:39.265Z,1.83
2018-07-04T22:39:18.878Z,1.93
2018-07-04T22:41:58.396Z,2.17
2018-07-04T22:44:38.103Z,1.97
2018-07-04T22:47:17.636Z,2.00
2018-07-04T22:49:57.233Z,1.83
2018-07-04T22:52:36.828Z,2.00
2018-07-04T22:55:16.506Z,2.13
2018-07-04T22:57:56.190Z,2.00
2018-07-04T23:00:35.684Z,1.90
2018-07-04T23:03:15.224Z,2.10
2018-07-04T23:05:54.664Z,1.97
2018-07-04T23:08:34.419Z,1.63
2018-07-04T23:11:08.112Z,2.30
2018-07-04T23:13:47.812Z,2.10
2018-07-04T23:16:27.376Z,2.10
2018-07-04T23:19:07.086Z,2.10
2018-07-04T23:21:46.752Z,2.30
2018-07-04T23:24:26.477Z,1.93
2018-07-04T23:27:06.110Z,2.30
2018-07-04T23:29:45.968Z,2.30
2018-07-04T23:32:26.010Z,1.83
2018-07-04T23:35:05.836Z,1.90
2018-07-04T23:37:39.465Z,2.07
2018-07-04T23:40:19.649Z,1.75
2018-07-04T23:42:59.317Z,1.73
2018-07-04T23:45:38.906Z,1.90
2018-07-04T23:48:18.617Z,1.50
2018-07-04T23:50:52.247Z,1.70
2018-07-04T23:53:31.960Z,1.77
2018-07-04T23:56:11.632Z,2.00
2018-07-04T23:58:51.370Z,2.10
